General Mariano Matamoros Airport
MMCB : now visible

Airfield :











YOU CAN JOIN US ON...

 
LOGIN :

Register | Disclaimer

   EN    FR    IT 

 









Legend :    VFR   Marginal VFR   IFR   Intensive IFR   Very Intensive IFR
Visi :
Ceiling :
>= 8 km
>= 3000ft
5 to 8 km
1000 to 3000 ft
1500m to 5 km
500 to 1000 ft
800 to 1500m
200 to 500 ft
< 800m
< 200 ft
Symbols :   Thunderstorms  Fog  Heavy snow  Heavy precipitations  Wind > 20 kt






- Airport Elevation : 4277 ft
- IATA code : CVJ


MMCB - General Mariano Matamoros

CURRENT METAR :
  • 242340Z 23004KT 10SM SCT025 BKN070 BKN250 25/17 A3004 RMK 8/463 DSNT CBS 1ST 4TH QUADS HZY

EXPIRED METARs :
  • 242240Z 00000KT 10SM FEW025 SCT080 27/17 A3002 RMK 8/460 DSNT CB 4TH QUAD CI HZY

TAF TAF MMCB
Valid from the 24 at 18:00 until the 25 at 18:00 UTC


241618Z 2418/2518 16008KT P6SM SCT020 SCT070
BECMG 2419/2420 BKN020 BKN070
FM242200 08008KT 6SM -RA BKN020CB
TEMPO 2422/2502 4SM TSRA
FM250200 00000KT 6SM -RA BKN015 OVC070
FM250900 00000KT 6SM HZ SCT010 BKN020 BKN080 BKN200
TEMPO 2510/2514 3SM BR
FM251500 15004KT 6SM HZ SCT020 BKN070 BKN200
MMFR FIR / North America



MET'MAP, your aeronautical weather chart ! - Copyright ORBIFLY December 2007 - Disclaimer

ORBIFLY MET'MAP TEAM :

Programming & Development : Alexandra Zaïnal
Original concept : Baudouin d'Aumeries
Technical & hardware support : Manuel Goepfert
Assistance : Marc-Olivier Méhu




SOURCES & CREDITS :

   NOAA       Earth
Advisory